createdAt,value
2023-05-03T00:00:32.389Z,1003.76
2023-05-03T00:01:32.390Z,1003.77
2023-05-03T00:02:32.576Z,1003.75
2023-05-03T00:03:32.359Z,1003.76
2023-05-03T00:04:32.450Z,1003.75
2023-05-03T00:05:32.388Z,1003.76
2023-05-03T00:06:32.376Z,1003.77
2023-05-03T00:07:32.357Z,1003.73
2023-05-03T00:08:32.321Z,1003.76
2023-05-03T00:09:32.318Z,1003.73
2023-05-03T00:10:32.314Z,1003.77
2023-05-03T00:11:32.323Z,1003.79
2023-05-03T00:12:32.308Z,1003.72
2023-05-03T00:13:32.297Z,1003.73
2023-05-03T00:14:32.305Z,1003.66
2023-05-03T00:15:32.286Z,1003.69
2023-05-03T00:16:32.319Z,1003.67
2023-05-03T00:17:32.318Z,1003.71
2023-05-03T00:18:32.255Z,1003.69
2023-05-03T00:19:32.232Z,1003.68
2023-05-03T00:20:32.244Z,1003.73
2023-05-03T00:22:22.178Z,1003.71
2023-05-03T00:23:22.180Z,1003.62
2023-05-03T00:24:23.272Z,1003.61
2023-05-03T00:25:23.269Z,1003.61
2023-05-03T00:26:23.243Z,1003.57
2023-05-03T00:27:23.252Z,1003.58
2023-05-03T00:28:23.225Z,1003.63
2023-05-03T00:29:23.229Z,1003.59
2023-05-03T00:30:23.259Z,1003.55
2023-05-03T00:31:23.246Z,1003.59
2023-05-03T00:32:23.361Z,1003.61
2023-05-03T00:33:23.197Z,1003.61
2023-05-03T00:34:23.180Z,1003.61
2023-05-03T00:35:23.182Z,1003.68
2023-05-03T00:36:23.217Z,1003.66
2023-05-03T00:37:25.125Z,1003.65
2023-05-03T00:38:23.158Z,1003.62
2023-05-03T00:39:23.148Z,1003.61
2023-05-03T00:40:23.133Z,1003.62
2023-05-03T00:41:23.118Z,1003.60
2023-05-03T00:42:23.116Z,1003.55
2023-05-03T00:43:23.122Z,1003.57
2023-05-03T00:44:23.111Z,1003.55
2023-05-03T00:45:23.109Z,1003.59
2023-05-03T00:46:23.120Z,1003.53
2023-05-03T00:47:23.140Z,1003.54
2023-05-03T00:48:23.073Z,1003.56
2023-05-03T00:49:23.058Z,1003.47
2023-05-03T00:50:23.057Z,1003.49
2023-05-03T00:51:23.048Z,1003.51
2023-05-03T00:52:23.039Z,1003.52
2023-05-03T00:53:23.066Z,1003.55
2023-05-03T00:54:23.020Z,1003.57
2023-05-03T00:55:23.016Z,1003.54
2023-05-03T00:56:23.016Z,1003.51
2023-05-03T00:57:23.046Z,1003.57
2023-05-03T00:58:23.016Z,1003.52
2023-05-03T00:59:23.018Z,1003.56
2023-05-03T01:00:23.000Z,1003.53
2023-05-03T01:01:23.018Z,1003.56
2023-05-03T01:02:23.036Z,1003.52
2023-05-03T01:03:22.991Z,1003.58
2023-05-03T01:04:22.974Z,1003.54
2023-05-03T01:05:23.654Z,1003.57
2023-05-03T01:06:23.016Z,1003.61
2023-05-03T01:07:22.937Z,1003.59
2023-05-03T01:08:22.919Z,1003.57
2023-05-03T01:09:22.912Z,1003.56
2023-05-03T01:10:22.950Z,1003.57
2023-05-03T01:11:22.895Z,1003.61
2023-05-03T01:12:22.894Z,1003.52
2023-05-03T01:13:22.866Z,1003.62
2023-05-03T01:14:22.892Z,1003.61
2023-05-03T01:15:22.854Z,1003.57
2023-05-03T01:16:22.900Z,1003.59
2023-05-03T01:17:22.837Z,1003.61
2023-05-03T01:18:22.827Z,1003.67
2023-05-03T01:19:22.824Z,1003.63
2023-05-03T01:20:22.808Z,1003.57
2023-05-03T01:21:22.840Z,1003.58
2023-05-03T01:22:23.562Z,1003.57
2023-05-03T01:23:22.786Z,1003.57
2023-05-03T01:24:22.787Z,1003.59
2023-05-03T01:25:22.784Z,1003.58
2023-05-03T01:26:22.781Z,1003.57
2023-05-03T01:27:22.774Z,1003.54
2023-05-03T01:28:22.765Z,1003.57
2023-05-03T01:29:23.573Z,1003.61
2023-05-03T01:30:22.744Z,1003.64
2023-05-03T01:31:22.804Z,1003.59
2023-05-03T01:32:22.762Z,1003.54
2023-05-03T01:33:22.723Z,1003.60
2023-05-03T01:34:22.712Z,1003.57
2023-05-03T01:35:22.710Z,1003.59
2023-05-03T01:36:22.696Z,1003.58
2023-05-03T01:37:22.707Z,1003.57
2023-05-03T01:38:22.684Z,1003.58
2023-05-03T01:39:22.669Z,1003.56
2023-05-03T01:40:22.680Z,1003.52
2023-05-03T01:41:22.655Z,1003.62
2023-05-03T01:42:23.626Z,1003.61
2023-05-03T01:43:22.661Z,1003.63
2023-05-03T01:44:22.635Z,1003.66
2023-05-03T01:45:22.681Z,1003.70
2023-05-03T01:46:24.169Z,1003.65
2023-05-03T01:47:22.600Z,1003.56
2023-05-03T01:48:22.594Z,1003.69
2023-05-03T01:49:22.597Z,1003.59
2023-05-03T01:50:22.576Z,1003.59
2023-05-03T01:51:22.594Z,1003.62
2023-05-03T01:52:22.580Z,1003.60
2023-05-03T01:53:22.567Z,1003.61
2023-05-03T01:54:22.543Z,1003.51
2023-05-03T01:55:22.553Z,1003.52
2023-05-03T01:56:22.553Z,1003.58
2023-05-03T01:57:22.546Z,1003.58
2023-05-03T01:58:22.525Z,1003.47
2023-05-03T01:59:22.550Z,1003.53
2023-05-03T02:00:22.493Z,1003.63
2023-05-03T02:01:23.535Z,1003.56
2023-05-03T02:02:22.496Z,1003.58
2023-05-03T02:03:22.518Z,1003.58
2023-05-03T02:04:22.527Z,1003.55
2023-05-03T02:05:22.465Z,1003.60
2023-05-03T02:06:22.539Z,1003.66
2023-05-03T02:07:22.460Z,1003.61
2023-05-03T02:08:22.447Z,1003.62
2023-05-03T02:09:22.466Z,1003.61
2023-05-03T02:10:22.440Z,1003.66
2023-05-03T02:11:22.430Z,1003.68
2023-05-03T02:12:22.414Z,1003.60
2023-05-03T02:13:22.411Z,1003.69
2023-05-03T02:14:22.403Z,1003.67
2023-05-03T02:15:22.386Z,1003.72
2023-05-03T02:16:22.434Z,1003.75
2023-05-03T02:17:22.414Z,1003.69
2023-05-03T02:18:22.388Z,1003.67
2023-05-03T02:19:22.425Z,1003.63
2023-05-03T02:20:22.369Z,1003.64
2023-05-03T02:21:22.351Z,1003.66
2023-05-03T02:22:22.351Z,1003.69
2023-05-03T02:23:22.355Z,1003.69
2023-05-03T02:24:22.327Z,1003.72
2023-05-03T02:25:22.321Z,1003.68
2023-05-03T02:26:22.315Z,1003.67
2023-05-03T02:27:22.314Z,1003.63
2023-05-03T02:28:22.306Z,1003.68
2023-05-03T02:29:22.294Z,1003.74
2023-05-03T02:30:22.284Z,1003.78
2023-05-03T02:31:22.328Z,1003.73
2023-05-03T02:32:22.261Z,1003.73
2023-05-03T02:33:22.264Z,1003.73
2023-05-03T02:34:22.255Z,1003.74
2023-05-03T02:35:22.237Z,1003.76
2023-05-03T02:36:22.236Z,1003.73
2023-05-03T02:37:23.221Z,1003.76
2023-05-03T02:38:22.238Z,1003.73
2023-05-03T02:39:22.238Z,1003.71
2023-05-03T02:40:22.205Z,1003.73
2023-05-03T02:41:22.230Z,1003.72
2023-05-03T02:42:22.195Z,1003.74
2023-05-03T02:43:22.187Z,1003.74
2023-05-03T02:44:22.190Z,1003.75
2023-05-03T02:45:22.166Z,1003.74
2023-05-03T02:46:22.205Z,1003.74
2023-05-03T02:47:22.174Z,1003.73
2023-05-03T02:48:22.143Z,1003.77
2023-05-03T02:49:22.138Z,1003.76
2023-05-03T02:50:22.130Z,1003.79
2023-05-03T02:51:23.119Z,1003.68
2023-05-03T02:52:22.112Z,1003.73
2023-05-03T02:53:22.104Z,1003.66
2023-05-03T02:54:22.124Z,1003.67
2023-05-03T02:55:22.101Z,1003.64
2023-05-03T02:56:22.100Z,1003.70
2023-05-03T02:57:22.097Z,1003.79
2023-05-03T02:58:22.079Z,1003.69
2023-05-03T02:59:22.078Z,1003.80
2023-05-03T03:00:22.070Z,1003.76
2023-05-03T03:01:22.072Z,1003.76
2023-05-03T03:02:22.064Z,1003.70
2023-05-03T03:03:22.102Z,1003.75
2023-05-03T03:04:22.009Z,1003.77
2023-05-03T03:05:22.050Z,1003.71
2023-05-03T03:06:22.032Z,1003.79
2023-05-03T03:07:21.999Z,1003.75
2023-05-03T03:08:21.987Z,1003.78
2023-05-03T03:09:21.975Z,1003.80
2023-05-03T03:10:21.979Z,1003.79
2023-05-03T03:11:22.959Z,1003.82
2023-05-03T03:12:21.957Z,1003.77
2023-05-03T03:13:21.941Z,1003.85
2023-05-03T03:14:21.943Z,1003.82
2023-05-03T03:15:21.937Z,1003.85
2023-05-03T03:16:21.963Z,1003.85
2023-05-03T03:17:22.009Z,1003.93
2023-05-03T03:18:21.899Z,1003.90
2023-05-03T03:19:21.918Z,1003.96
2023-05-03T03:20:21.891Z,1003.97
2023-05-03T03:21:21.887Z,1003.95
2023-05-03T03:22:21.887Z,1004.02
2023-05-03T03:23:21.896Z,1004.04
2023-05-03T03:24:21.868Z,1004.02
2023-05-03T03:25:21.850Z,1004.05
2023-05-03T03:26:21.872Z,1004.06
2023-05-03T03:27:21.837Z,1004.00
2023-05-03T03:28:21.830Z,1004.06
2023-05-03T03:29:21.824Z,1004.04
2023-05-03T03:30:21.836Z,1004.05
2023-05-03T03:31:21.854Z,1004.03
2023-05-03T03:32:21.792Z,1004.02
2023-05-03T03:33:24.259Z,1004.08
2023-05-03T03:34:22.777Z,1004.01
2023-05-03T03:35:21.795Z,1004.05
2023-05-03T03:36:21.788Z,1004.05
2023-05-03T03:37:21.767Z,1004.04
2023-05-03T03:38:21.750Z,1004.02
2023-05-03T03:39:21.749Z,1003.98
2023-05-03T03:40:21.736Z,1003.99
2023-05-03T03:41:21.730Z,1003.99
2023-05-03T03:42:21.726Z,1004.02
2023-05-03T03:43:21.706Z,1004.07
2023-05-03T03:44:21.701Z,1004.00
2023-05-03T03:45:21.726Z,1004.01
2023-05-03T03:46:22.738Z,1004.04
2023-05-03T03:47:21.822Z,1004.05
2023-05-03T03:48:21.666Z,1004.02
2023-05-03T03:49:21.680Z,1004.00
2023-05-03T03:50:21.683Z,1004.02
2023-05-03T03:51:21.652Z,1004.01
2023-05-03T03:52:21.642Z,1004.04
2023-05-03T03:53:22.626Z,1004.02
2023-05-03T03:54:21.629Z,1004.01
2023-05-03T03:55:21.612Z,1004.04
2023-05-03T03:56:21.609Z,1004.04
2023-05-03T03:57:21.603Z,1004.05
2023-05-03T03:58:21.625Z,1004.01
2023-05-03T03:59:21.587Z,1004.02
2023-05-03T04:00:21.605Z,1003.94
2023-05-03T04:01:22.083Z,1003.98
2023-05-03T04:02:21.597Z,1004.01
2023-05-03T04:03:21.632Z,1004.00
2023-05-03T04:04:21.626Z,1003.94
2023-05-03T04:05:21.547Z,1003.98
2023-05-03T04:06:21.552Z,1003.94
2023-05-03T04:07:21.528Z,1003.94
2023-05-03T04:08:23.156Z,1003.95
2023-05-03T04:09:21.530Z,1003.95
2023-05-03T04:10:21.522Z,1003.99
2023-05-03T04:11:21.519Z,1003.97
2023-05-03T04:12:21.489Z,1004.02
2023-05-03T04:13:21.472Z,1004.04
2023-05-03T04:14:21.468Z,1004.01
2023-05-03T04:15:21.493Z,1004.03
2023-05-03T04:16:21.610Z,1004.04
2023-05-03T04:17:21.482Z,1004.04
2023-05-03T04:18:21.442Z,1003.92
2023-05-03T04:19:21.430Z,1004.00
2023-05-03T04:20:21.433Z,1003.98
2023-05-03T04:21:21.433Z,1004.07
2023-05-03T04:22:21.416Z,1004.06
2023-05-03T04:23:21.404Z,1004.08
2023-05-03T04:24:21.402Z,1004.16
2023-05-03T04:25:21.391Z,1004.14
2023-05-03T04:26:31.333Z,1004.15
2023-05-03T04:27:23.377Z,1004.17
2023-05-03T04:28:21.362Z,1004.09
2023-05-03T04:29:22.086Z,1004.13
2023-05-03T04:30:22.078Z,1004.17
2023-05-03T04:31:21.387Z,1004.17
2023-05-03T04:32:21.325Z,1004.19
2023-05-03T04:33:21.487Z,1004.16
2023-05-03T04:34:21.315Z,1004.20
2023-05-03T04:35:22.079Z,1004.23
2023-05-03T04:36:21.504Z,1004.27
2023-05-03T04:37:21.309Z,1004.24
2023-05-03T04:38:21.293Z,1004.32
2023-05-03T04:39:21.296Z,1004.34
2023-05-03T04:40:21.278Z,1004.33
2023-05-03T04:41:21.290Z,1004.47
2023-05-03T04:42:21.260Z,1004.48
2023-05-03T04:43:21.268Z,1004.45
2023-05-03T04:44:21.289Z,1004.48
2023-05-03T04:45:21.233Z,1004.52
2023-05-03T04:46:21.282Z,1004.50
2023-05-03T04:47:21.221Z,1004.51
2023-05-03T04:48:21.200Z,1004.51
2023-05-03T04:49:21.210Z,1004.54
2023-05-03T04:50:21.197Z,1004.50
2023-05-03T04:51:24.319Z,1004.57
2023-05-03T04:52:21.179Z,1004.59
2023-05-03T04:53:21.180Z,1004.53
2023-05-03T04:54:21.175Z,1004.54
2023-05-03T04:55:21.150Z,1004.61
2023-05-03T04:56:21.189Z,1004.59
2023-05-03T04:57:21.176Z,1004.57
2023-05-03T04:58:21.123Z,1004.62
2023-05-03T04:59:21.128Z,1004.64
2023-05-03T05:00:21.125Z,1004.57
2023-05-03T05:01:21.140Z,1004.61
2023-05-03T05:03:28.356Z,1004.61
2023-05-03T05:04:28.241Z,1004.67
2023-05-03T05:05:28.214Z,1004.64
2023-05-03T05:06:28.251Z,1004.62
2023-05-03T05:07:28.211Z,1004.63
2023-05-03T05:08:28.200Z,1004.66
2023-05-03T05:09:28.180Z,1004.64
2023-05-03T05:10:28.175Z,1004.66
2023-05-03T05:11:28.172Z,1004.69
2023-05-03T05:12:28.156Z,1004.66
2023-05-03T05:13:28.174Z,1004.62
2023-05-03T05:14:28.172Z,1004.58
2023-05-03T05:15:28.132Z,1004.66
2023-05-03T05:16:28.145Z,1004.65
2023-05-03T05:17:28.183Z,1004.62
2023-05-03T05:18:28.150Z,1004.70
2023-05-03T05:19:28.136Z,1004.65
2023-05-03T05:20:28.110Z,1004.71
2023-05-03T05:21:28.081Z,1004.65
2023-05-03T05:22:28.118Z,1004.67
2023-05-03T05:23:28.096Z,1004.61
2023-05-03T05:24:28.109Z,1004.68
2023-05-03T05:25:28.082Z,1004.67
2023-05-03T05:26:28.048Z,1004.77
2023-05-03T05:27:28.057Z,1004.73
2023-05-03T05:28:28.034Z,1004.71
2023-05-03T05:29:29.140Z,1004.71
2023-05-03T05:30:29.132Z,1004.74
2023-05-03T05:31:29.109Z,1004.77
2023-05-03T05:32:29.082Z,1004.79
2023-05-03T05:33:29.192Z,1004.75
2023-05-03T05:34:32.260Z,1004.78
2023-05-03T05:35:30.064Z,1004.76
2023-05-03T05:36:29.046Z,1004.83
2023-05-03T05:37:29.050Z,1004.78
2023-05-03T05:38:29.046Z,1004.80
2023-05-03T05:39:29.043Z,1004.80
2023-05-03T05:40:29.140Z,1004.79
2023-05-03T05:41:29.009Z,1004.77
2023-05-03T05:42:29.026Z,1004.86
2023-05-03T05:43:29.003Z,1004.88
2023-05-03T05:44:28.994Z,1004.91
2023-05-03T05:45:29.608Z,1004.93
2023-05-03T05:46:29.005Z,1004.89
2023-05-03T05:47:28.998Z,1004.87
2023-05-03T05:48:29.610Z,1004.95
2023-05-03T05:49:28.973Z,1004.91
2023-05-03T05:50:28.938Z,1004.89
2023-05-03T05:51:28.946Z,1004.87
2023-05-03T05:52:28.920Z,1004.91
2023-05-03T05:53:28.911Z,1004.87
2023-05-03T05:54:30.575Z,1004.85
2023-05-03T05:55:29.609Z,1004.83
2023-05-03T05:57:35.668Z,1004.82
2023-05-03T05:58:35.659Z,1004.78
2023-05-03T05:59:35.683Z,1004.77
2023-05-03T06:00:35.646Z,1004.75
2023-05-03T06:01:35.644Z,1004.78
2023-05-03T06:02:35.806Z,1004.81
2023-05-03T06:03:36.721Z,1004.82
2023-05-03T06:04:37.749Z,1004.83
2023-05-03T06:05:36.733Z,1004.86
2023-05-03T06:06:36.753Z,1004.81
2023-05-03T06:07:36.686Z,1004.80
2023-05-03T06:08:36.674Z,1004.75
2023-05-03T06:09:36.667Z,1004.76
2023-05-03T06:10:36.660Z,1004.74
2023-05-03T06:11:37.535Z,1004.64
2023-05-03T06:12:36.642Z,1004.77
2023-05-03T06:13:36.655Z,1004.79
2023-05-03T06:14:36.648Z,1004.80
2023-05-03T06:15:36.656Z,1004.80
2023-05-03T06:16:36.645Z,1004.79
2023-05-03T06:17:36.709Z,1004.84
2023-05-03T06:18:36.613Z,1004.79
2023-05-03T06:19:36.601Z,1004.83
2023-05-03T06:20:36.619Z,1004.80
2023-05-03T06:21:36.586Z,1004.76
2023-05-03T06:22:37.585Z,1004.80
2023-05-03T06:23:36.564Z,1004.78
2023-05-03T06:24:36.641Z,1004.74
2023-05-03T06:25:36.571Z,1004.70
2023-05-03T06:26:36.543Z,1004.65
2023-05-03T06:27:36.685Z,1004.70
2023-05-03T06:28:36.570Z,1004.71
2023-05-03T06:29:37.549Z,1004.69
2023-05-03T06:31:43.537Z,1004.70
2023-05-03T06:32:43.369Z,1004.70
2023-05-03T06:33:43.342Z,1004.69
2023-05-03T06:34:43.372Z,1004.69
2023-05-03T06:35:43.333Z,1004.69
2023-05-03T06:36:44.222Z,1004.66
2023-05-03T06:37:43.381Z,1004.73
2023-05-03T06:38:43.297Z,1004.63
2023-05-03T06:39:44.418Z,1004.63
2023-05-03T06:40:44.403Z,1004.65
2023-05-03T06:41:45.288Z,1004.64
2023-05-03T06:42:44.394Z,1004.70
2023-05-03T06:43:44.344Z,1004.70
2023-05-03T06:44:44.330Z,1004.59
2023-05-03T06:45:46.341Z,1004.69
2023-05-03T06:46:44.396Z,1004.59
2023-05-03T06:47:44.376Z,1004.58
2023-05-03T06:48:44.421Z,1004.61
2023-05-03T06:49:44.316Z,1004.58
2023-05-03T06:50:44.298Z,1004.58
2023-05-03T06:51:44.289Z,1004.55
2023-05-03T06:52:44.293Z,1004.61
2023-05-03T06:53:44.265Z,1004.57
2023-05-03T06:54:44.258Z,1004.56
2023-05-03T06:55:44.245Z,1004.54
2023-05-03T06:56:44.255Z,1004.64
2023-05-03T06:57:44.227Z,1004.65
2023-05-03T06:58:44.221Z,1004.61
2023-05-03T06:59:44.229Z,1004.54
2023-05-03T07:00:44.218Z,1004.50
2023-05-03T07:01:44.282Z,1004.54
2023-05-03T07:02:44.287Z,1004.58
2023-05-03T07:03:44.351Z,1004.52
2023-05-03T07:04:44.187Z,1004.50
2023-05-03T07:05:44.181Z,1004.52
2023-05-03T07:06:55.380Z,1004.48
2023-05-03T07:07:46.147Z,1004.47
2023-05-03T07:08:44.167Z,1004.56
2023-05-03T07:09:44.770Z,1004.49
2023-05-03T07:10:44.818Z,1004.52
2023-05-03T07:11:44.325Z,1004.46
2023-05-03T07:12:44.193Z,1004.43
2023-05-03T07:13:44.133Z,1004.45
2023-05-03T07:14:44.097Z,1004.38
2023-05-03T07:15:44.193Z,1004.47
2023-05-03T07:16:44.226Z,1004.46
2023-05-03T07:17:44.324Z,1004.54
2023-05-03T07:18:44.720Z,1004.52
2023-05-03T07:19:44.070Z,1004.46
2023-05-03T07:20:44.051Z,1004.48
2023-05-03T07:21:44.061Z,1004.50
2023-05-03T07:22:44.038Z,1004.49
2023-05-03T07:23:44.022Z,1004.46
2023-05-03T07:24:44.069Z,1004.47
2023-05-03T07:25:44.048Z,1004.39
2023-05-03T07:26:44.725Z,1004.43
2023-05-03T07:27:44.997Z,1004.40
2023-05-03T07:28:44.053Z,1004.36
2023-05-03T07:29:44.061Z,1004.35
2023-05-03T07:30:44.827Z,1004.41
2023-05-03T07:31:43.978Z,1004.32
2023-05-03T07:32:44.065Z,1004.41
2023-05-03T07:33:44.034Z,1004.39
2023-05-03T07:34:43.953Z,1004.32
2023-05-03T07:35:43.943Z,1004.49
2023-05-03T07:36:44.934Z,1004.43
2023-05-03T07:37:43.937Z,1004.38
2023-05-03T07:38:43.909Z,1004.36
2023-05-03T07:39:43.905Z,1004.36
2023-05-03T07:40:43.899Z,1004.41
2023-05-03T07:41:43.986Z,1004.45
2023-05-03T07:42:43.922Z,1004.46
2023-05-03T07:43:43.869Z,1004.33
2023-05-03T07:44:43.883Z,1004.31
2023-05-03T07:45:43.915Z,1004.38
2023-05-03T07:46:43.836Z,1004.29
2023-05-03T07:47:43.871Z,1004.26
2023-05-03T07:48:43.819Z,1004.22
2023-05-03T07:49:43.841Z,1004.29
2023-05-03T07:50:43.810Z,1004.29
2023-05-03T07:51:43.789Z,1004.27
2023-05-03T07:52:44.823Z,1004.28
2023-05-03T07:53:43.813Z,1004.21
2023-05-03T07:54:43.769Z,1004.23
2023-05-03T07:55:43.834Z,1004.16
2023-05-03T07:56:43.770Z,1004.21
2023-05-03T07:57:43.766Z,1004.19
2023-05-03T07:58:46.618Z,1004.18
2023-05-03T07:59:44.742Z,1004.21
2023-05-03T08:00:43.755Z,1004.24
2023-05-03T08:01:43.729Z,1004.22
2023-05-03T08:02:43.817Z,1004.33
2023-05-03T08:03:44.018Z,1004.28
2023-05-03T08:04:43.966Z,1004.25
2023-05-03T08:05:43.845Z,1004.22
2023-05-03T08:06:43.725Z,1004.22
2023-05-03T08:07:43.691Z,1004.26
2023-05-03T08:08:43.690Z,1004.25
2023-05-03T08:09:44.238Z,1004.22
2023-05-03T08:10:43.646Z,1004.23
2023-05-03T08:11:44.393Z,1004.25
2023-05-03T08:12:44.706Z,1004.20
2023-05-03T08:13:43.805Z,1004.20
2023-05-03T08:14:43.643Z,1004.20
2023-05-03T08:15:43.666Z,1004.27
2023-05-03T08:16:43.598Z,1004.22
2023-05-03T08:17:43.651Z,1004.19
2023-05-03T08:18:44.323Z,1004.20
2023-05-03T08:19:43.567Z,1004.21
2023-05-03T08:20:43.574Z,1004.23
2023-05-03T08:21:43.700Z,1004.19
2023-05-03T08:22:43.568Z,1004.22
2023-05-03T08:23:43.554Z,1004.19
2023-05-03T08:24:43.531Z,1004.20
2023-05-03T08:25:43.637Z,1004.22
2023-05-03T08:26:43.548Z,1004.17
2023-05-03T08:27:44.368Z,1004.21
2023-05-03T08:28:43.537Z,1004.16
2023-05-03T08:29:43.537Z,1004.09
2023-05-03T08:30:43.514Z,1004.07
2023-05-03T08:31:43.558Z,1004.11
2023-05-03T08:32:43.550Z,1004.09
2023-05-03T08:33:43.469Z,1004.09
2023-05-03T08:34:43.485Z,1004.10
2023-05-03T08:35:43.457Z,1004.08
2023-05-03T08:36:43.460Z,1004.08
2023-05-03T08:37:43.446Z,1004.02
2023-05-03T08:38:43.448Z,1004.03
2023-05-03T08:39:43.422Z,1004.00
2023-05-03T08:40:43.421Z,1004.02
2023-05-03T08:41:43.419Z,1003.96
2023-05-03T08:42:43.425Z,1003.98
2023-05-03T08:43:43.410Z,1003.92
2023-05-03T08:44:43.387Z,1003.99
2023-05-03T08:45:43.387Z,1004.01
2023-05-03T08:46:43.502Z,1004.01
2023-05-03T08:47:43.396Z,1003.95
2023-05-03T08:48:43.402Z,1003.97
2023-05-03T08:49:43.356Z,1004.00
2023-05-03T08:50:44.254Z,1003.94
2023-05-03T08:51:43.351Z,1004.00
2023-05-03T08:52:43.396Z,1003.98
2023-05-03T08:53:43.307Z,1004.02
2023-05-03T08:54:45.401Z,1003.91
2023-05-03T08:55:43.838Z,1003.91
2023-05-03T08:56:43.307Z,1003.91
2023-05-03T08:57:43.287Z,1003.95
2023-05-03T08:58:43.276Z,1003.96
2023-05-03T08:59:43.848Z,1003.93
2023-05-03T09:00:43.248Z,1003.93
2023-05-03T09:01:43.323Z,1003.98
2023-05-03T09:02:43.420Z,1003.86
2023-05-03T09:03:43.364Z,1003.92
2023-05-03T09:04:43.330Z,1003.92
2023-05-03T09:05:43.224Z,1003.88
2023-05-03T09:06:43.228Z,1003.85
2023-05-03T09:07:43.223Z,1003.87
2023-05-03T09:08:43.174Z,1003.87
2023-05-03T09:09:45.630Z,1003.97
2023-05-03T09:10:43.218Z,1003.96
2023-05-03T09:11:43.170Z,1003.94
2023-05-03T09:12:43.838Z,1003.99
2023-05-03T09:13:43.162Z,1003.97
2023-05-03T09:14:43.158Z,1003.93
2023-05-03T09:15:43.175Z,1003.97
2023-05-03T09:16:45.044Z,1003.92
2023-05-03T09:17:49.837Z,1003.96
2023-05-03T09:18:43.790Z,1003.95
2023-05-03T09:19:43.102Z,1003.92
2023-05-03T09:20:43.083Z,1003.88
2023-05-03T09:21:43.088Z,1003.91
2023-05-03T09:22:43.101Z,1003.91
2023-05-03T09:23:43.068Z,1003.95
2023-05-03T09:24:43.068Z,1003.99
2023-05-03T09:25:43.067Z,1003.95
2023-05-03T09:26:43.057Z,1003.92
2023-05-03T09:27:43.869Z,1003.86
2023-05-03T09:28:43.047Z,1003.88
2023-05-03T09:29:43.020Z,1003.85
2023-05-03T09:30:43.014Z,1003.93
2023-05-03T09:31:43.099Z,1003.90
2023-05-03T09:32:43.120Z,1003.92
2023-05-03T09:33:42.983Z,1003.82
2023-05-03T09:34:43.010Z,1003.79
2023-05-03T09:35:42.973Z,1003.81
2023-05-03T09:36:44.473Z,1003.84
2023-05-03T09:37:42.972Z,1003.93
2023-05-03T09:38:42.949Z,1003.80
2023-05-03T09:39:42.950Z,1003.76
2023-05-03T09:40:42.957Z,1003.83
2023-05-03T09:41:42.918Z,1003.79
2023-05-03T09:42:42.940Z,1003.88
2023-05-03T09:43:42.913Z,1003.89
2023-05-03T09:44:42.928Z,1003.83
2023-05-03T09:45:42.925Z,1003.84
2023-05-03T09:46:42.896Z,1003.85
2023-05-03T09:47:42.888Z,1003.76
2023-05-03T09:48:42.978Z,1003.75
2023-05-03T09:49:42.859Z,1003.86
2023-05-03T09:50:42.858Z,1003.81
2023-05-03T09:51:42.881Z,1003.79
2023-05-03T09:52:42.852Z,1003.84
2023-05-03T09:53:42.828Z,1003.75
2023-05-03T09:54:42.825Z,1003.73
2023-05-03T09:55:42.825Z,1003.75
2023-05-03T09:56:42.812Z,1003.77
2023-05-03T09:57:42.813Z,1003.75
2023-05-03T09:58:42.807Z,1003.80
2023-05-03T09:59:42.834Z,1003.70
2023-05-03T10:00:42.776Z,1003.72
2023-05-03T10:01:42.826Z,1003.71
2023-05-03T10:02:42.825Z,1003.53
2023-05-03T10:03:42.815Z,1003.57
2023-05-03T10:04:42.766Z,1003.52
2023-05-03T10:05:42.746Z,1003.60
2023-05-03T10:06:42.787Z,1003.64
2023-05-03T10:07:44.356Z,1003.58
2023-05-03T10:09:30.326Z,1003.57
2023-05-03T10:10:30.319Z,1003.44
2023-05-03T10:11:30.343Z,1003.44
2023-05-03T10:12:31.393Z,1003.58
2023-05-03T10:13:32.451Z,1003.54
2023-05-03T10:14:31.384Z,1003.52
2023-05-03T10:15:31.417Z,1003.49
2023-05-03T10:16:31.406Z,1003.52
2023-05-03T10:17:43.567Z,1003.44
2023-05-03T10:18:33.403Z,1003.50
2023-05-03T10:19:31.338Z,1003.50
2023-05-03T10:20:31.394Z,1003.50
2023-05-03T10:21:31.326Z,1003.47
2023-05-03T10:22:31.316Z,1003.48
2023-05-03T10:23:31.322Z,1003.51
2023-05-03T10:24:31.314Z,1003.56
2023-05-03T10:25:31.319Z,1003.53
2023-05-03T10:26:31.321Z,1003.50
2023-05-03T10:27:31.291Z,1003.49
2023-05-03T10:28:31.284Z,1003.44
2023-05-03T10:29:31.267Z,1003.47
2023-05-03T10:30:32.049Z,1003.50
2023-05-03T10:31:31.278Z,1003.48
2023-05-03T10:32:31.281Z,1003.48
2023-05-03T10:33:31.238Z,1003.37
2023-05-03T10:34:32.082Z,1003.33
2023-05-03T10:35:31.270Z,1003.32
2023-05-03T10:36:45.844Z,1003.40
2023-05-03T10:37:33.241Z,1003.38
2023-05-03T10:38:31.223Z,1003.33
2023-05-03T10:39:31.248Z,1003.34
2023-05-03T10:40:31.953Z,1003.40
2023-05-03T10:41:31.206Z,1003.40
2023-05-03T10:42:31.157Z,1003.38
2023-05-03T10:43:32.059Z,1003.35
2023-05-03T10:44:32.159Z,1003.36
2023-05-03T10:45:31.188Z,1003.37
2023-05-03T10:46:31.155Z,1003.37
2023-05-03T10:47:31.128Z,1003.39
2023-05-03T10:48:32.109Z,1003.34
2023-05-03T10:49:31.121Z,1003.41
2023-05-03T10:50:31.093Z,1003.35
2023-05-03T10:51:31.107Z,1003.39
2023-05-03T10:52:31.102Z,1003.33
2023-05-03T10:53:31.092Z,1003.39
2023-05-03T10:54:32.040Z,1003.37
2023-05-03T10:55:31.060Z,1003.37
2023-05-03T10:56:31.073Z,1003.38
2023-05-03T10:57:31.062Z,1003.39
2023-05-03T10:58:31.060Z,1003.36
2023-05-03T10:59:31.044Z,1003.35
2023-05-03T11:00:31.035Z,1003.37
2023-05-03T11:01:31.042Z,1003.31
2023-05-03T11:02:31.027Z,1003.29
2023-05-03T11:03:31.024Z,1003.25
2023-05-03T11:04:31.751Z,1003.30
2023-05-03T11:05:31.966Z,1003.28
2023-05-03T11:06:31.075Z,1003.25
2023-05-03T11:07:31.005Z,1003.28
2023-05-03T11:08:30.962Z,1003.27
2023-05-03T11:09:30.950Z,1003.17
2023-05-03T11:10:30.945Z,1003.26
2023-05-03T11:11:30.941Z,1003.24
2023-05-03T11:12:30.908Z,1003.27
2023-05-03T11:13:30.947Z,1003.24
2023-05-03T11:14:30.940Z,1003.24
2023-05-03T11:15:32.477Z,1003.25
2023-05-03T11:16:31.015Z,1003.19
2023-05-03T11:17:30.888Z,1003.22
2023-05-03T11:18:30.929Z,1003.22
2023-05-03T11:19:30.855Z,1003.24
2023-05-03T11:20:30.857Z,1003.22
2023-05-03T11:21:31.556Z,1003.26
2023-05-03T11:22:30.828Z,1003.21
2023-05-03T11:23:31.465Z,1003.24
2023-05-03T11:24:30.870Z,1003.15
2023-05-03T11:25:30.817Z,1003.17
2023-05-03T11:26:30.807Z,1003.16
2023-05-03T11:27:30.800Z,1003.10
2023-05-03T11:28:30.779Z,1003.17
2023-05-03T11:29:30.770Z,1003.24
2023-05-03T11:30:30.779Z,1003.20
2023-05-03T11:31:30.762Z,1003.17
2023-05-03T11:32:30.798Z,1003.14
2023-05-03T11:33:30.747Z,1003.20
2023-05-03T11:34:31.060Z,1003.23
2023-05-03T11:35:30.796Z,1003.24
2023-05-03T11:36:30.707Z,1003.22
2023-05-03T11:37:30.705Z,1003.25
2023-05-03T11:38:30.706Z,1003.27
2023-05-03T11:39:30.700Z,1003.12
2023-05-03T11:40:30.694Z,1003.11
2023-05-03T11:41:33.548Z,1003.07
2023-05-03T11:42:30.677Z,1003.22
2023-05-03T11:43:31.547Z,1003.07
2023-05-03T11:44:30.695Z,1003.08
2023-05-03T11:45:30.686Z,1003.08
2023-05-03T11:46:30.804Z,1002.97
2023-05-03T11:47:30.739Z,1003.01
2023-05-03T11:48:30.697Z,1003.05
2023-05-03T11:49:30.616Z,1002.93
2023-05-03T11:50:30.617Z,1002.95
2023-05-03T11:51:30.605Z,1003.04
2023-05-03T11:52:30.764Z,1002.93
2023-05-03T11:53:30.602Z,1002.96
2023-05-03T11:54:31.490Z,1002.91
2023-05-03T11:55:30.594Z,1002.88
2023-05-03T11:56:30.600Z,1002.92
2023-05-03T11:57:30.573Z,1002.98
2023-05-03T11:58:30.540Z,1002.90
2023-05-03T11:59:30.529Z,1002.91
2023-05-03T12:00:30.525Z,1002.90
2023-05-03T12:01:30.543Z,1002.86
2023-05-03T12:02:31.649Z,1002.90
2023-05-03T12:03:32.526Z,1002.87
2023-05-03T12:04:31.595Z,1002.96
2023-05-03T12:05:30.953Z,1002.84
2023-05-03T12:06:30.857Z,1002.92
2023-05-03T12:07:30.798Z,1002.91
2023-05-03T12:08:31.622Z,1002.83
2023-05-03T12:09:31.769Z,1002.83
2023-05-03T12:10:30.882Z,1002.90